createdAt,value
2022-09-28T00:02:13.059Z,1.50
2022-09-28T00:04:42.541Z,1.00
2022-09-28T00:07:10.172Z,2.50
2022-09-28T00:09:38.504Z,3.00
2022-09-28T00:12:06.818Z,3.00
2022-09-28T00:14:34.392Z,4.00
2022-09-28T00:17:02.286Z,3.00
2022-09-28T00:19:29.843Z,3.00
2022-09-28T00:21:57.481Z,3.00
2022-09-28T00:24:27.642Z,3.00
2022-09-28T00:26:55.964Z,3.25
2022-09-28T00:29:23.892Z,3.25
2022-09-28T00:31:52.477Z,2.50
2022-09-28T00:34:20.088Z,3.00
2022-09-28T00:36:48.183Z,3.00
2022-09-28T00:39:15.811Z,2.00
2022-09-28T00:41:43.740Z,3.00
2022-09-28T00:44:11.449Z,2.50
2022-09-28T00:46:39.009Z,1.00
2022-09-28T00:49:07.612Z,3.00
2022-09-28T00:51:35.213Z,3.00
2022-09-28T00:54:03.351Z,1.00
2022-09-28T00:56:30.935Z,3.00
2022-09-28T00:58:59.141Z,2.00
2022-09-28T01:01:26.720Z,3.50
2022-09-28T01:03:54.872Z,2.50
2022-09-28T01:06:22.770Z,2.50
2022-09-28T01:08:50.931Z,2.50
2022-09-28T01:11:18.455Z,3.00
2022-09-28T01:13:46.058Z,1.00
2022-09-28T01:16:13.664Z,1.50
2022-09-28T01:18:41.770Z,1.00
2022-09-28T01:21:09.396Z,3.00
2022-09-28T01:23:36.943Z,3.50
2022-09-28T01:26:04.546Z,2.50
2022-09-28T01:28:32.164Z,2.50
2022-09-28T01:31:01.246Z,3.25
2022-09-28T01:33:28.784Z,3.00
2022-09-28T01:35:57.063Z,0.25
2022-09-28T01:38:24.588Z,3.00
2022-09-28T01:40:52.191Z,1.50
2022-09-28T01:43:20.164Z,3.25
2022-09-28T01:45:47.736Z,3.50
2022-09-28T01:48:15.353Z,0.75
2022-09-28T01:50:42.918Z,4.00
2022-09-28T01:53:10.817Z,2.50
2022-09-28T01:55:39.157Z,3.50
2022-09-28T01:58:06.742Z,5.00
2022-09-28T02:00:34.369Z,2.50
2022-09-28T02:03:02.037Z,1.50
2022-09-28T02:05:29.620Z,3.50
2022-09-28T02:07:57.997Z,3.25
2022-09-28T02:10:25.717Z,2.50
2022-09-28T02:12:53.455Z,0.75
2022-09-28T02:15:21.493Z,2.00
2022-09-28T02:17:49.048Z,4.00
2022-09-28T02:20:17.024Z,2.00
2022-09-28T02:22:44.576Z,2.00
2022-09-28T02:25:12.134Z,0.75
2022-09-28T02:27:40.001Z,0.00
2022-09-28T02:30:07.634Z,3.00
2022-09-28T02:32:35.873Z,2.50
2022-09-28T02:35:03.500Z,0.25
2022-09-28T02:37:31.433Z,3.00
2022-09-28T02:39:58.999Z,3.50
2022-09-28T02:42:26.621Z,4.50
2022-09-28T02:44:54.516Z,3.25
2022-09-28T02:47:22.597Z,3.00
2022-09-28T02:49:50.192Z,1.50
2022-09-28T02:52:17.750Z,3.25
2022-09-28T02:54:45.341Z,4.00
2022-09-28T02:57:13.153Z,4.00
2022-09-28T02:59:41.021Z,3.50
2022-09-28T03:02:08.706Z,5.00
2022-09-28T03:04:36.312Z,6.00
2022-09-28T03:07:03.878Z,2.50
2022-09-28T03:09:31.647Z,5.00
2022-09-28T03:11:59.252Z,2.50
2022-09-28T03:14:26.850Z,1.50
2022-09-28T03:16:54.392Z,1.00
2022-09-28T03:19:22.000Z,6.75
2022-09-28T03:21:51.869Z,8.50
2022-09-28T03:24:19.529Z,6.00
2022-09-28T03:26:47.110Z,6.75
2022-09-28T03:29:15.027Z,6.25
2022-09-28T03:31:44.369Z,6.00
2022-09-28T03:34:12.372Z,6.75
2022-09-28T03:36:39.941Z,4.50
2022-09-28T03:39:07.531Z,6.00
2022-09-28T03:41:35.118Z,3.75
2022-09-28T03:44:02.685Z,6.00
2022-09-28T03:46:30.555Z,8.50
2022-09-28T03:48:58.459Z,6.00
2022-09-28T03:51:26.005Z,7.00
2022-09-28T03:53:53.578Z,6.00
2022-09-28T03:56:21.177Z,7.00
2022-09-28T03:58:49.292Z,9.00
2022-09-28T04:01:18.020Z,12.50
2022-09-28T04:03:45.982Z,9.50
2022-09-28T04:06:14.044Z,10.25
2022-09-28T04:08:43.135Z,7.75
2022-09-28T04:11:11.274Z,11.50
2022-09-28T04:13:38.861Z,11.50
2022-09-28T04:16:06.711Z,7.75
2022-09-28T04:18:35.376Z,12.00
2022-09-28T04:21:06.749Z,8.75
2022-09-28T04:23:35.040Z,6.75
2022-09-28T04:26:02.658Z,12.00
2022-09-28T04:28:48.123Z,10.00
2022-09-28T04:31:15.782Z,13.50
2022-09-28T04:33:44.418Z,11.00
2022-09-28T04:36:11.980Z,10.00
2022-09-28T04:38:52.802Z,10.00
2022-09-28T04:41:22.519Z,12.50
2022-09-28T04:43:51.080Z,15.00
2022-09-28T04:46:18.709Z,15.00
2022-09-28T04:48:46.329Z,6.25
2022-09-28T04:51:13.931Z,13.00
2022-09-28T04:53:41.473Z,15.50
2022-09-28T04:56:09.608Z,11.50
2022-09-28T04:58:37.225Z,13.00
2022-09-28T05:01:05.397Z,7.50
2022-09-28T05:03:33.005Z,15.00
2022-09-28T05:06:01.235Z,12.00
2022-09-28T05:08:29.121Z,14.50
2022-09-28T05:10:56.715Z,9.50
2022-09-28T05:13:24.459Z,9.50
2022-09-28T05:15:54.995Z,12.75
2022-09-28T05:18:25.156Z,12.00
2022-09-28T05:20:52.971Z,8.00
2022-09-28T05:23:20.729Z,11.50
2022-09-28T05:25:48.332Z,9.50
2022-09-28T05:28:15.934Z,9.50
2022-09-28T05:30:43.753Z,9.50
2022-09-28T05:33:11.951Z,16.00
2022-09-28T05:35:39.582Z,13.50
2022-09-28T05:38:07.182Z,18.00
2022-09-28T05:40:34.865Z,16.75
2022-09-28T05:43:02.732Z,15.00
2022-09-28T05:45:30.731Z,9.25
2022-09-28T05:47:58.359Z,12.00
2022-09-28T05:50:26.040Z,14.50
2022-09-28T05:52:53.963Z,16.25
2022-09-28T05:55:21.547Z,10.00
2022-09-28T05:57:49.712Z,10.00
2022-09-28T06:00:17.295Z,19.00
2022-09-28T06:02:44.971Z,17.50
2022-09-28T06:05:12.644Z,17.50
2022-09-28T06:07:40.598Z,14.00
2022-09-28T06:10:08.821Z,15.50
2022-09-28T06:12:36.530Z,15.00
2022-09-28T06:15:04.456Z,21.25
2022-09-28T06:17:32.117Z,16.75
2022-09-28T06:19:59.879Z,18.50
2022-09-28T06:22:28.014Z,9.00
2022-09-28T06:24:55.767Z,12.25
2022-09-28T06:27:23.454Z,14.50
2022-09-28T06:29:51.039Z,14.00
2022-09-28T06:32:18.680Z,14.25
2022-09-28T06:34:46.883Z,18.00
2022-09-28T06:37:14.845Z,15.50
2022-09-28T06:39:42.507Z,18.75
2022-09-28T06:42:10.467Z,14.50
2022-09-28T06:44:40.271Z,8.50
2022-09-28T06:47:08.490Z,20.50
2022-09-28T06:49:36.186Z,20.50
2022-09-28T06:52:03.900Z,11.75
2022-09-28T06:54:31.513Z,18.00
2022-09-28T06:56:59.208Z,15.25
2022-09-28T06:59:27.756Z,17.25
2022-09-28T07:01:55.570Z,11.50
2022-09-28T07:04:23.344Z,14.50
2022-09-28T07:06:51.003Z,11.75
2022-09-28T07:09:31.536Z,6.00
2022-09-28T07:12:00.786Z,20.00
2022-09-28T07:14:46.305Z,13.75
2022-09-28T07:17:15.477Z,17.50
2022-09-28T07:19:43.575Z,7.50
2022-09-28T07:22:18.777Z,17.00
2022-09-28T07:24:46.789Z,12.50
2022-09-28T07:27:14.379Z,12.00
2022-09-28T07:29:42.083Z,12.50
2022-09-28T07:32:09.913Z,12.00
2022-09-28T07:34:41.874Z,16.25
2022-09-28T07:37:11.935Z,15.25
2022-09-28T07:39:53.279Z,18.50
2022-09-28T07:42:20.988Z,10.75
2022-09-28T07:44:49.516Z,17.50
2022-09-28T07:47:18.092Z,12.00
2022-09-28T07:49:45.821Z,14.50
2022-09-28T07:52:13.564Z,16.00
2022-09-28T07:54:41.284Z,15.00
2022-09-28T07:57:09.455Z,15.50
2022-09-28T07:59:37.240Z,12.25
2022-09-28T08:02:04.905Z,11.50
2022-09-28T08:04:32.890Z,19.25
2022-09-28T08:07:00.749Z,20.50
2022-09-28T08:09:28.607Z,19.75
2022-09-28T08:11:56.421Z,18.00
2022-09-28T08:14:24.915Z,19.50
2022-09-28T08:16:53.349Z,18.00
2022-09-28T08:19:21.262Z,22.25
2022-09-28T08:21:48.486Z,19.00
2022-09-28T08:24:16.325Z,8.00
2022-09-28T08:26:44.477Z,14.00
2022-09-28T08:29:12.200Z,15.75
2022-09-28T08:31:40.011Z,13.00
2022-09-28T08:34:08.201Z,15.50
2022-09-28T08:36:36.126Z,15.25
2022-09-28T08:39:03.964Z,9.50
2022-09-28T08:41:31.726Z,20.25
2022-09-28T08:43:59.438Z,19.00
2022-09-28T08:46:27.602Z,13.75
2022-09-28T08:49:20.529Z,16.00
2022-09-28T08:51:43.393Z,12.25
2022-09-28T08:54:12.050Z,15.50
2022-09-28T08:56:40.256Z,21.50
2022-09-28T08:59:08.583Z,20.00
2022-09-28T09:01:36.369Z,19.50
2022-09-28T09:04:04.659Z,15.50
2022-09-28T09:06:32.326Z,16.50
2022-09-28T09:09:01.309Z,10.50
2022-09-28T09:11:29.275Z,10.00
2022-09-28T09:13:57.456Z,17.50
2022-09-28T09:16:25.504Z,17.00
2022-09-28T09:18:53.538Z,20.00
2022-09-28T09:21:21.665Z,13.75
2022-09-28T09:23:50.028Z,22.00
2022-09-28T09:26:22.988Z,20.00
2022-09-28T09:28:52.189Z,20.50
2022-09-28T09:31:22.752Z,19.00
2022-09-28T09:33:52.734Z,18.00
2022-09-28T09:36:20.475Z,15.50
2022-09-28T09:38:48.199Z,9.75
2022-09-28T09:41:16.071Z,14.25
2022-09-28T09:43:43.896Z,16.25
2022-09-28T09:46:12.448Z,11.50
2022-09-28T09:48:40.189Z,15.50
2022-09-28T09:51:08.058Z,14.50
2022-09-28T09:53:38.337Z,14.00
2022-09-28T09:56:06.646Z,13.25
2022-09-28T09:58:35.493Z,13.50
2022-09-28T10:01:03.444Z,17.50
2022-09-28T10:03:31.516Z,14.50
2022-09-28T10:05:59.360Z,20.50
2022-09-28T10:08:27.751Z,14.50
2022-09-28T10:10:55.814Z,19.25
2022-09-28T10:13:23.738Z,11.50
2022-09-28T10:15:51.872Z,12.75
2022-09-28T10:18:19.622Z,19.50
2022-09-28T10:20:47.453Z,13.75
2022-09-28T10:23:15.785Z,15.75
2022-09-28T10:25:43.586Z,19.50
2022-09-28T10:28:11.358Z,15.00
2022-09-28T10:30:44.703Z,20.25
2022-09-28T10:33:12.714Z,9.75
2022-09-28T10:35:41.276Z,17.50
2022-09-28T10:38:09.181Z,19.00
2022-09-28T10:40:37.107Z,10.00
2022-09-28T10:43:05.178Z,12.00
2022-09-28T10:45:33.098Z,7.25
2022-09-28T10:48:02.227Z,18.25
2022-09-28T10:50:30.318Z,13.00
2022-09-28T10:52:58.508Z,16.50
2022-09-28T10:55:26.312Z,18.50
2022-09-28T10:57:54.470Z,14.50
2022-09-28T11:00:22.945Z,12.00
2022-09-28T11:02:50.822Z,13.50
2022-09-28T11:05:18.627Z,14.50
2022-09-28T11:07:46.400Z,12.75
2022-09-28T11:10:14.341Z,9.25
2022-09-28T11:12:42.691Z,14.00
2022-09-28T11:15:10.732Z,13.00
2022-09-28T11:17:39.191Z,12.50
2022-09-28T11:20:07.024Z,10.50
2022-09-28T11:22:34.771Z,11.00
2022-09-28T11:25:03.115Z,5.00
2022-09-28T11:27:31.285Z,12.50
2022-09-28T11:29:58.949Z,9.00
2022-09-28T11:32:26.831Z,8.00
2022-09-28T11:34:59.443Z,10.50
2022-09-28T11:37:31.652Z,13.00
2022-09-28T11:39:59.360Z,9.75
2022-09-28T11:42:27.217Z,12.00
2022-09-28T11:44:55.165Z,9.50
2022-09-28T11:47:23.032Z,10.25
2022-09-28T11:49:51.883Z,10.75
2022-09-28T11:52:19.770Z,9.00
2022-09-28T11:54:48.137Z,9.00
2022-09-28T11:57:15.809Z,8.00
2022-09-28T11:59:44.142Z,11.00
2022-09-28T12:02:12.745Z,13.00
2022-09-28T12:04:40.681Z,3.75
2022-09-28T12:07:08.608Z,10.00
2022-09-28T12:09:37.537Z,11.00
2022-09-28T12:12:05.472Z,9.50
2022-09-28T12:14:34.105Z,7.00
2022-09-28T12:17:07.630Z,12.50
2022-09-28T12:19:36.091Z,12.50
2022-09-28T12:22:04.272Z,10.50
2022-09-28T12:24:32.326Z,11.50
2022-09-28T12:27:01.002Z,15.25
2022-09-28T12:29:28.872Z,10.50
2022-09-28T12:31:56.702Z,16.50
2022-09-28T12:34:24.420Z,15.00
2022-09-28T12:36:52.083Z,10.00
2022-09-28T12:39:35.790Z,10.00
2022-09-28T12:42:08.689Z,7.75
2022-09-28T12:44:37.058Z,12.00
2022-09-28T12:47:06.404Z,12.50
2022-09-28T12:52:22.901Z,16.50
2022-09-28T12:54:50.972Z,9.00
2022-09-28T12:57:18.847Z,13.00
2022-09-28T12:59:46.985Z,14.00
2022-09-28T13:02:15.788Z,12.25
2022-09-28T13:04:44.356Z,9.25
2022-09-28T13:07:12.206Z,14.00
2022-09-28T13:09:40.099Z,16.50
2022-09-28T13:12:08.630Z,10.00
2022-09-28T13:14:36.528Z,6.25
2022-09-28T13:17:04.494Z,10.00
2022-09-28T13:19:32.408Z,7.25
2022-09-28T13:22:00.389Z,11.50
2022-09-28T13:24:33.508Z,9.00
2022-09-28T13:27:01.733Z,15.50
2022-09-28T13:29:29.675Z,6.00
2022-09-28T13:31:57.543Z,7.00
2022-09-28T13:34:25.295Z,8.00
2022-09-28T13:36:53.525Z,9.00
2022-09-28T13:39:21.183Z,12.00
2022-09-28T13:41:49.096Z,9.75
2022-09-28T13:44:17.762Z,14.75
2022-09-28T13:46:45.912Z,12.00
2022-09-28T13:49:14.515Z,7.00
2022-09-28T13:51:42.513Z,9.25
2022-09-28T13:54:10.398Z,10.00
2022-09-28T13:56:38.481Z,11.75
2022-09-28T13:59:06.419Z,10.00
2022-09-28T14:01:35.110Z,15.50
2022-09-28T14:04:02.939Z,15.75
2022-09-28T14:06:31.178Z,12.25
2022-09-28T14:08:59.225Z,10.50
2022-09-28T14:11:26.975Z,12.25
2022-09-28T14:13:55.432Z,12.00
2022-09-28T14:16:23.090Z,14.50
2022-09-28T14:18:51.384Z,12.25
2022-09-28T14:21:19.289Z,14.75
2022-09-28T14:23:47.285Z,9.50
2022-09-28T14:26:15.573Z,9.25
2022-09-28T14:28:43.431Z,7.25
2022-09-28T14:31:12.369Z,8.50
2022-09-28T14:33:42.914Z,11.50
2022-09-28T14:36:10.955Z,11.00
2022-09-28T14:38:56.384Z,12.50
2022-09-28T14:41:24.465Z,10.50
2022-09-28T14:43:52.383Z,8.50
2022-09-28T14:46:20.291Z,7.50
2022-09-28T14:48:48.198Z,7.00
2022-09-28T14:51:16.749Z,6.25
2022-09-28T14:53:44.693Z,10.00
2022-09-28T14:56:12.664Z,9.00
2022-09-28T14:58:40.598Z,5.00
2022-09-28T15:01:08.506Z,11.50
2022-09-28T15:03:36.644Z,10.50
2022-09-28T15:06:04.634Z,11.33
2022-09-28T15:08:33.642Z,11.50
2022-09-28T15:11:02.373Z,3.75
2022-09-28T15:13:30.362Z,9.00
2022-09-28T15:15:58.632Z,12.25
2022-09-28T15:18:29.158Z,7.00
2022-09-28T15:20:57.276Z,9.75
2022-09-28T15:23:25.102Z,11.00
2022-09-28T15:25:52.894Z,10.00
2022-09-28T15:28:22.926Z,10.25
2022-09-28T15:30:51.029Z,9.75
2022-09-28T15:33:36.458Z,8.75
2022-09-28T15:36:04.295Z,7.50
2022-09-28T15:38:34.723Z,9.50
2022-09-28T15:41:04.693Z,9.25
2022-09-28T15:43:34.168Z,8.00
2022-09-28T15:46:03.087Z,5.00
2022-09-28T15:48:31.642Z,8.50
2022-09-28T15:50:59.750Z,10.00
2022-09-28T15:53:27.593Z,10.00
2022-09-28T15:55:55.907Z,10.00
2022-09-28T15:58:24.724Z,4.00
2022-09-28T16:00:52.669Z,11.50
2022-09-28T16:03:21.362Z,9.75
2022-09-28T16:05:49.402Z,7.00
2022-09-28T16:08:21.687Z,10.00
2022-09-28T16:10:49.358Z,9.50
2022-09-28T16:13:17.370Z,9.75
2022-09-28T16:15:45.802Z,6.00
2022-09-28T16:18:16.590Z,8.00
2022-09-28T16:20:44.886Z,7.00
2022-09-28T16:23:12.769Z,7.00
2022-09-28T16:25:40.608Z,7.00
2022-09-28T16:28:09.682Z,12.50
2022-09-28T16:30:38.233Z,10.50
2022-09-28T16:33:06.209Z,10.25
2022-09-28T16:35:33.984Z,12.25
2022-09-28T16:38:01.802Z,20.75
2022-09-28T16:40:30.166Z,11.50
2022-09-28T16:42:58.243Z,18.00
2022-09-28T16:45:26.182Z,15.50
2022-09-28T16:47:54.856Z,7.50
2022-09-28T16:50:22.722Z,8.50
2022-09-28T16:53:08.004Z,4.50
2022-09-28T16:55:40.371Z,2.00
2022-09-28T16:58:08.824Z,3.75
2022-09-28T17:00:37.108Z,4.50
2022-09-28T17:03:05.767Z,5.50
2022-09-28T17:05:34.022Z,2.50
2022-09-28T17:08:02.555Z,4.50
2022-09-28T17:10:30.380Z,9.00
2022-09-28T17:12:58.357Z,5.00
2022-09-28T17:15:26.295Z,5.75
2022-09-28T17:17:56.329Z,6.75
2022-09-28T17:20:24.681Z,3.75
2022-09-28T17:22:53.609Z,3.25
2022-09-28T17:25:21.437Z,3.50
2022-09-28T17:27:49.380Z,4.00
2022-09-28T17:30:17.649Z,3.00
2022-09-28T17:32:47.458Z,3.25
2022-09-28T17:35:25.354Z,4.00
2022-09-28T17:37:53.657Z,3.75
2022-09-28T17:40:22.028Z,3.25
2022-09-28T17:42:50.032Z,3.50
2022-09-28T17:45:18.373Z,1.50
2022-09-28T17:47:46.456Z,1.50
2022-09-28T17:50:14.312Z,5.50
2022-09-28T17:52:43.036Z,3.00
2022-09-28T17:55:11.263Z,4.00
2022-09-28T17:57:39.318Z,4.00
2022-09-28T18:00:07.340Z,7.00
2022-09-28T18:02:35.365Z,3.75
2022-09-28T18:05:04.051Z,5.50
2022-09-28T18:07:34.606Z,7.00
2022-09-28T18:10:02.452Z,7.00
2022-09-28T18:12:30.444Z,1.00
2022-09-28T18:14:58.297Z,0.00
2022-09-28T18:17:26.696Z,3.25
2022-09-28T18:19:54.624Z,3.00
2022-09-28T18:22:22.604Z,1.00
2022-09-28T18:24:50.632Z,3.50
2022-09-28T18:27:19.355Z,3.00
2022-09-28T18:29:47.255Z,1.00
2022-09-28T18:32:15.399Z,4.00
2022-09-28T18:34:43.260Z,1.50
2022-09-28T18:37:11.644Z,3.00
2022-09-28T18:39:39.506Z,3.50
2022-09-28T18:42:07.665Z,3.00
2022-09-28T18:44:35.613Z,1.50
2022-09-28T18:47:03.489Z,2.00
2022-09-28T18:49:31.538Z,0.50
2022-09-28T18:51:59.322Z,3.00
2022-09-28T18:54:27.478Z,3.00
2022-09-28T18:56:56.471Z,3.75
2022-09-28T18:59:24.310Z,3.00
2022-09-28T19:01:53.270Z,3.25
2022-09-28T19:04:21.549Z,1.00
2022-09-28T19:06:53.020Z,3.00
2022-09-28T19:09:21.689Z,0.50
2022-09-28T19:11:49.513Z,2.00
2022-09-28T19:14:17.271Z,4.00
2022-09-28T19:16:45.266Z,1.00
2022-09-28T19:19:13.914Z,6.75
2022-09-28T19:21:43.439Z,2.00
2022-09-28T19:24:11.344Z,3.50
2022-09-28T19:26:39.269Z,3.00
2022-09-28T19:29:07.023Z,2.00
2022-09-28T19:31:35.765Z,4.00
2022-09-28T19:34:03.839Z,3.50
2022-09-28T19:36:31.646Z,3.25
2022-09-28T19:39:03.158Z,3.00
2022-09-28T19:41:44.570Z,4.00
2022-09-28T19:44:13.810Z,4.00
2022-09-28T19:46:41.688Z,6.50
2022-09-28T19:49:09.427Z,0.00
2022-09-28T19:51:46.985Z,5.00
2022-09-28T19:54:33.133Z,1.00
2022-09-28T19:57:08.192Z,0.50
2022-09-28T19:59:36.887Z,2.00
2022-09-28T20:02:04.882Z,3.00
2022-09-28T20:04:33.418Z,3.25
2022-09-28T20:07:01.983Z,1.00
2022-09-28T20:09:29.793Z,1.50
2022-09-28T20:11:57.760Z,0.50
2022-09-28T20:14:26.407Z,4.00
2022-09-28T20:16:59.250Z,0.75
2022-09-28T20:19:27.112Z,5.50
2022-09-28T20:21:58.862Z,4.00
2022-09-28T20:24:28.974Z,3.00
2022-09-28T20:26:56.898Z,4.00
2022-09-28T20:29:25.538Z,1.00
2022-09-28T20:31:53.427Z,3.00
2022-09-28T20:34:21.284Z,3.00
2022-09-28T20:36:49.139Z,1.00
2022-09-28T20:39:16.990Z,2.50
2022-09-28T20:41:46.718Z,1.00
2022-09-28T20:44:14.622Z,3.00
2022-09-28T20:46:44.041Z,2.00
2022-09-28T20:49:12.114Z,1.00
2022-09-28T20:51:39.887Z,1.00
2022-09-28T20:54:09.573Z,1.00
2022-09-28T20:56:38.454Z,1.50
2022-09-28T20:59:06.385Z,3.50
2022-09-28T21:01:34.396Z,3.75
2022-09-28T21:04:02.215Z,3.50
2022-09-28T21:06:30.442Z,3.00
2022-09-28T21:08:58.239Z,6.00
2022-09-28T21:11:26.091Z,2.00
2022-09-28T21:13:53.972Z,4.00
2022-09-28T21:16:22.203Z,3.00
2022-09-28T21:18:50.274Z,4.00
2022-09-28T21:21:18.049Z,1.00
2022-09-28T21:23:46.066Z,0.50
2022-09-28T21:26:13.726Z,3.75
2022-09-28T21:28:41.628Z,3.75
2022-09-28T21:31:09.506Z,4.00
2022-09-28T21:33:37.507Z,3.75
2022-09-28T21:36:05.215Z,3.00
2022-09-28T21:38:33.381Z,4.00
2022-09-28T21:41:01.117Z,4.00
2022-09-28T21:43:29.462Z,3.00
2022-09-28T21:45:57.877Z,2.50
2022-09-28T21:48:25.584Z,0.00
2022-09-28T21:50:53.338Z,3.00
2022-09-28T21:53:21.066Z,5.50
2022-09-28T21:55:52.820Z,5.00
2022-09-28T21:58:23.730Z,3.00
2022-09-28T22:00:54.601Z,3.00
2022-09-28T22:03:24.784Z,1.00
2022-09-28T22:05:52.915Z,3.00
2022-09-28T22:08:20.576Z,0.00
2022-09-28T22:10:48.242Z,4.00
2022-09-28T22:13:15.800Z,3.00
2022-09-28T22:15:43.510Z,3.75
2022-09-28T22:18:11.793Z,5.00
2022-09-28T22:20:39.395Z,4.00
2022-09-28T22:23:07.275Z,3.00
2022-09-28T22:25:34.953Z,3.50
2022-09-28T22:28:02.635Z,3.25
2022-09-28T22:30:30.825Z,3.50
2022-09-28T22:32:58.527Z,3.75
2022-09-28T22:35:26.221Z,3.00
2022-09-28T22:37:53.772Z,2.00
2022-09-28T22:40:21.457Z,3.50
2022-09-28T22:42:50.010Z,3.25
2022-09-28T22:45:17.903Z,5.00
2022-09-28T22:47:45.539Z,5.00
2022-09-28T22:50:13.250Z,4.50
2022-09-28T22:52:40.836Z,4.25
2022-09-28T22:55:09.285Z,3.00
2022-09-28T22:57:36.884Z,4.00
2022-09-28T23:00:04.578Z,3.00
2022-09-28T23:02:32.249Z,3.50
2022-09-28T23:04:59.892Z,4.00
2022-09-28T23:07:28.739Z,4.50
2022-09-28T23:09:58.387Z,1.50
2022-09-28T23:12:25.929Z,4.00
2022-09-28T23:14:53.502Z,3.50
2022-09-28T23:17:21.158Z,1.00
2022-09-28T23:19:49.574Z,4.50
2022-09-28T23:22:17.209Z,3.25
2022-09-28T23:24:44.890Z,3.00
2022-09-28T23:27:12.456Z,1.00
2022-09-28T23:29:47.010Z,4.00
2022-09-28T23:32:15.165Z,1.50
2022-09-28T23:34:42.732Z,3.50
2022-09-28T23:37:10.373Z,0.75
2022-09-28T23:39:37.952Z,6.00
2022-09-28T23:42:05.796Z,5.50
2022-09-28T23:44:33.638Z,6.25
2022-09-28T23:47:01.469Z,2.00
2022-09-28T23:49:29.743Z,6.00
2022-09-28T23:51:57.604Z,4.00
2022-09-28T23:54:25.201Z,5.60
2022-09-28T23:56:53.158Z,2.00
2022-09-28T23:59:20.794Z,3.00
